sensor_id;sensor_type;location;lat;lon;timestamp;pressure;altitude;pressure_sealevel;temperature;humidity
70690;BME280;58267;51.156;17.044;2024-01-10T00:01:30;102178.23;;;-7.33;35.08
70690;BME280;58267;51.156;17.044;2024-01-10T00:03:55;102173.35;;;-7.22;34.99
70690;BME280;58267;51.156;17.044;2024-01-10T00:06:21;102175.87;;;-7.14;34.68
70690;BME280;58267;51.156;17.044;2024-01-10T00:08:46;102173.76;;;-7.40;34.58
70690;BME280;58267;51.156;17.044;2024-01-10T00:11:12;102171.37;;;-7.10;34.71
70690;BME280;58267;51.156;17.044;2024-01-10T00:13:37;102162.98;;;-7.47;34.97
70690;BME280;58267;51.156;17.044;2024-01-10T00:16:03;102158.12;;;-7.16;36.12
70690;BME280;58267;51.156;17.044;2024-01-10T00:18:28;102156.97;;;-7.39;36.29
70690;BME280;58267;51.156;17.044;2024-01-10T00:20:53;102157.19;;;-7.31;36.29
70690;BME280;58267;51.156;17.044;2024-01-10T00:23:19;102157.45;;;-7.21;36.25
70690;BME280;58267;51.156;17.044;2024-01-10T00:25:45;102155.95;;;-6.97;35.89
70690;BME280;58267;51.156;17.044;2024-01-10T00:28:10;102158.29;;;-7.45;35.78
70690;BME280;58267;51.156;17.044;2024-01-10T00:30:35;102160.16;;;-7.01;35.89
70690;BME280;58267;51.156;17.044;2024-01-10T00:33:00;102159.41;;;-7.14;35.32
70690;BME280;58267;51.156;17.044;2024-01-10T00:35:26;102157.81;;;-7.32;35.16
70690;BME280;58267;51.156;17.044;2024-01-10T00:37:51;102164.44;;;-7.73;35.12
70690;BME280;58267;51.156;17.044;2024-01-10T00:40:17;102161.40;;;-7.60;35.04
70690;BME280;58267;51.156;17.044;2024-01-10T00:42:42;102160.90;;;-7.44;34.54
70690;BME280;58267;51.156;17.044;2024-01-10T00:45:09;102157.33;;;-7.40;34.56
70690;BME280;58267;51.156;17.044;2024-01-10T00:47:34;102157.29;;;-7.79;35.34
70690;BME280;58267;51.156;17.044;2024-01-10T00:49:59;102152.50;;;-7.80;35.62
70690;BME280;58267;51.156;17.044;2024-01-10T00:52:25;102153.71;;;-7.21;36.01
70690;BME280;58267;51.156;17.044;2024-01-10T00:54:50;102148.11;;;-7.45;35.76
70690;BME280;58267;51.156;17.044;2024-01-10T00:57:15;102158.32;;;-7.57;35.02
70690;BME280;58267;51.156;17.044;2024-01-10T00:59:41;102160.38;;;-7.92;34.78
70690;BME280;58267;51.156;17.044;2024-01-10T01:02:06;102164.76;;;-7.79;34.53
70690;BME280;58267;51.156;17.044;2024-01-10T01:04:32;102165.92;;;-8.02;34.63
70690;BME280;58267;51.156;17.044;2024-01-10T01:06:57;102164.02;;;-8.13;35.05
70690;BME280;58267;51.156;17.044;2024-01-10T01:09:22;102166.92;;;-7.85;35.62
70690;BME280;58267;51.156;17.044;2024-01-10T01:11:47;102164.59;;;-7.67;35.78
70690;BME280;58267;51.156;17.044;2024-01-10T01:14:12;102164.44;;;-8.29;36.93
70690;BME280;58267;51.156;17.044;2024-01-10T01:16:37;102159.98;;;-7.78;36.39
70690;BME280;58267;51.156;17.044;2024-01-10T01:19:03;102158.86;;;-7.57;36.01
70690;BME280;58267;51.156;17.044;2024-01-10T01:21:28;102160.19;;;-7.51;35.33
70690;BME280;58267;51.156;17.044;2024-01-10T01:23:54;102160.37;;;-7.63;34.88
70690;BME280;58267;51.156;17.044;2024-01-10T01:26:20;102159.86;;;-7.53;35.36
70690;BME280;58267;51.156;17.044;2024-01-10T01:28:45;102160.72;;;-7.57;36.15
70690;BME280;58267;51.156;17.044;2024-01-10T01:31:10;102155.56;;;-7.69;35.68
70690;BME280;58267;51.156;17.044;2024-01-10T01:33:35;102152.71;;;-7.52;35.62
70690;BME280;58267;51.156;17.044;2024-01-10T01:36:01;102156.37;;;-7.35;35.43
70690;BME280;58267;51.156;17.044;2024-01-10T01:38:26;102147.68;;;-7.44;35.49
70690;BME280;58267;51.156;17.044;2024-01-10T01:40:52;102147.51;;;-7.47;35.61
70690;BME280;58267;51.156;17.044;2024-01-10T01:43:20;102153.32;;;-7.63;34.96
70690;BME280;58267;51.156;17.044;2024-01-10T01:45:44;102154.63;;;-7.61;35.19
70690;BME280;58267;51.156;17.044;2024-01-10T01:48:09;102145.23;;;-7.25;35.52
70690;BME280;58267;51.156;17.044;2024-01-10T01:50:35;102142.16;;;-7.56;34.79
70690;BME280;58267;51.156;17.044;2024-01-10T01:53:01;102148.70;;;-7.63;35.77
70690;BME280;58267;51.156;17.044;2024-01-10T01:55:26;102145.10;;;-7.28;35.57
70690;BME280;58267;51.156;17.044;2024-01-10T01:57:52;102145.97;;;-7.56;35.29
70690;BME280;58267;51.156;17.044;2024-01-10T02:00:17;102147.32;;;-7.73;34.30
70690;BME280;58267;51.156;17.044;2024-01-10T02:02:44;102144.43;;;-7.79;34.09
70690;BME280;58267;51.156;17.044;2024-01-10T02:05:08;102143.96;;;-7.77;35.45
70690;BME280;58267;51.156;17.044;2024-01-10T02:07:33;102144.37;;;-7.59;36.13
70690;BME280;58267;51.156;17.044;2024-01-10T02:09:59;102140.61;;;-7.64;35.66
70690;BME280;58267;51.156;17.044;2024-01-10T02:12:25;102144.93;;;-7.95;35.68
70690;BME280;58267;51.156;17.044;2024-01-10T02:14:52;102143.90;;;-7.65;34.52
70690;BME280;58267;51.156;17.044;2024-01-10T02:17:17;102136.19;;;-7.79;34.48
70690;BME280;58267;51.156;17.044;2024-01-10T02:19:42;102133.35;;;-7.81;35.13
70690;BME280;58267;51.156;17.044;2024-01-10T02:22:08;102133.82;;;-7.56;35.00
70690;BME280;58267;51.156;17.044;2024-01-10T02:24:34;102137.05;;;-7.66;35.34
70690;BME280;58267;51.156;17.044;2024-01-10T02:26:59;102134.17;;;-7.85;35.34
70690;BME280;58267;51.156;17.044;2024-01-10T02:29:25;102135.53;;;-7.50;35.50
70690;BME280;58267;51.156;17.044;2024-01-10T02:31:50;102128.74;;;-7.42;35.24
70690;BME280;58267;51.156;17.044;2024-01-10T02:34:16;102132.56;;;-7.98;35.05
70690;BME280;58267;51.156;17.044;2024-01-10T02:36:41;102135.02;;;-7.48;34.83
70690;BME280;58267;51.156;17.044;2024-01-10T02:39:07;102130.22;;;-7.88;34.90
70690;BME280;58267;51.156;17.044;2024-01-10T02:41:32;102126.73;;;-7.77;35.07
70690;BME280;58267;51.156;17.044;2024-01-10T02:43:58;102122.15;;;-7.94;34.99
70690;BME280;58267;51.156;17.044;2024-01-10T02:46:24;102112.00;;;-7.82;35.31
70690;BME280;58267;51.156;17.044;2024-01-10T02:48:49;102113.01;;;-7.76;35.57
70690;BME280;58267;51.156;17.044;2024-01-10T02:51:14;102108.39;;;-7.59;35.83
70690;BME280;58267;51.156;17.044;2024-01-10T02:53:39;102101.52;;;-7.44;35.79
70690;BME280;58267;51.156;17.044;2024-01-10T02:56:05;102098.72;;;-7.32;35.72
70690;BME280;58267;51.156;17.044;2024-01-10T02:58:30;102098.79;;;-7.32;35.87
70690;BME280;58267;51.156;17.044;2024-01-10T03:00:56;102096.39;;;-7.19;35.72
70690;BME280;58267;51.156;17.044;2024-01-10T03:03:21;102097.47;;;-6.89;35.62
70690;BME280;58267;51.156;17.044;2024-01-10T03:05:47;102103.85;;;-7.27;35.54
70690;BME280;58267;51.156;17.044;2024-01-10T03:08:13;102108.51;;;-6.77;35.55
70690;BME280;58267;51.156;17.044;2024-01-10T03:10:38;102112.21;;;-7.12;35.09
70690;BME280;58267;51.156;17.044;2024-01-10T03:13:04;102115.22;;;-7.39;35.11
70690;BME280;58267;51.156;17.044;2024-01-10T03:15:29;102113.49;;;-7.56;34.88
70690;BME280;58267;51.156;17.044;2024-01-10T03:17:55;102113.41;;;-7.72;35.03
70690;BME280;58267;51.156;17.044;2024-01-10T03:20:21;102111.15;;;-7.75;35.04
70690;BME280;58267;51.156;17.044;2024-01-10T03:22:46;102112.65;;;-7.65;34.89
70690;BME280;58267;51.156;17.044;2024-01-10T03:25:11;102110.88;;;-7.47;34.67
70690;BME280;58267;51.156;17.044;2024-01-10T03:27:37;102107.97;;;-8.00;34.83
70690;BME280;58267;51.156;17.044;2024-01-10T03:30:03;102107.97;;;-7.87;35.42
70690;BME280;58267;51.156;17.044;2024-01-10T03:32:27;102108.84;;;-7.74;35.39
70690;BME280;58267;51.156;17.044;2024-01-10T03:34:53;102107.40;;;-7.71;35.55
70690;BME280;58267;51.156;17.044;2024-01-10T03:37:18;102106.70;;;-7.19;35.29
70690;BME280;58267;51.156;17.044;2024-01-10T03:39:44;102107.59;;;-7.59;35.17
70690;BME280;58267;51.156;17.044;2024-01-10T03:42:09;102108.84;;;-7.32;35.24
70690;BME280;58267;51.156;17.044;2024-01-10T03:44:35;102105.19;;;-7.37;35.14
70690;BME280;58267;51.156;17.044;2024-01-10T03:47:00;102103.86;;;-7.38;35.05
70690;BME280;58267;51.156;17.044;2024-01-10T03:49:25;102104.39;;;-7.27;35.10
70690;BME280;58267;51.156;17.044;2024-01-10T03:51:51;102103.57;;;-7.47;35.04
70690;BME280;58267;51.156;17.044;2024-01-10T03:54:17;102101.32;;;-7.05;35.00
70690;BME280;58267;51.156;17.044;2024-01-10T03:56:42;102098.74;;;-6.92;34.82
70690;BME280;58267;51.156;17.044;2024-01-10T03:59:08;102100.19;;;-6.96;34.86
70690;BME280;58267;51.156;17.044;2024-01-10T04:01:33;102100.44;;;-7.19;34.79
70690;BME280;58267;51.156;17.044;2024-01-10T04:03:59;102093.68;;;-7.25;35.01
70690;BME280;58267;51.156;17.044;2024-01-10T04:06:24;102088.34;;;-7.62;34.92
70690;BME280;58267;51.156;17.044;2024-01-10T04:08:49;102088.05;;;-7.46;34.96
70690;BME280;58267;51.156;17.044;2024-01-10T04:11:15;102086.72;;;-7.08;34.89
70690;BME280;58267;51.156;17.044;2024-01-10T04:13:40;102083.44;;;-7.02;34.64
70690;BME280;58267;51.156;17.044;2024-01-10T04:16:06;102087.74;;;-7.40;34.44
70690;BME280;58267;51.156;17.044;2024-01-10T04:18:30;102089.69;;;-7.49;34.56
70690;BME280;58267;51.156;17.044;2024-01-10T04:20:56;102090.62;;;-7.51;34.41
70690;BME280;58267;51.156;17.044;2024-01-10T04:23:21;102089.16;;;-7.79;34.74
70690;BME280;58267;51.156;17.044;2024-01-10T04:25:47;102094.15;;;-7.82;34.73
70690;BME280;58267;51.156;17.044;2024-01-10T04:28:12;102091.14;;;-7.53;34.33
70690;BME280;58267;51.156;17.044;2024-01-10T04:30:37;102091.38;;;-7.57;34.33
70690;BME280;58267;51.156;17.044;2024-01-10T04:33:03;102092.32;;;-7.95;34.32
70690;BME280;58267;51.156;17.044;2024-01-10T04:35:28;102082.68;;;-8.06;34.12
70690;BME280;58267;51.156;17.044;2024-01-10T04:37:54;102084.18;;;-8.01;34.17
70690;BME280;58267;51.156;17.044;2024-01-10T04:40:19;102087.26;;;-8.03;34.28
70690;BME280;58267;51.156;17.044;2024-01-10T04:42:45;102084.02;;;-7.98;34.22
70690;BME280;58267;51.156;17.044;2024-01-10T04:45:10;102079.98;;;-8.28;34.49
70690;BME280;58267;51.156;17.044;2024-01-10T04:47:35;102082.77;;;-8.13;34.44
70690;BME280;58267;51.156;17.044;2024-01-10T04:50:01;102086.55;;;-8.22;34.33
70690;BME280;58267;51.156;17.044;2024-01-10T04:52:26;102086.39;;;-8.30;34.28
70690;BME280;58267;51.156;17.044;2024-01-10T04:54:51;102083.75;;;-8.43;34.50
70690;BME280;58267;51.156;17.044;2024-01-10T04:57:17;102085.60;;;-8.41;34.68
70690;BME280;58267;51.156;17.044;2024-01-10T04:59:42;102083.14;;;-8.39;34.73
70690;BME280;58267;51.156;17.044;2024-01-10T05:02:07;102083.54;;;-8.46;34.74
70690;BME280;58267;51.156;17.044;2024-01-10T05:04:32;102085.04;;;-8.38;34.91
70690;BME280;58267;51.156;17.044;2024-01-10T05:06:58;102090.08;;;-8.31;34.57
70690;BME280;58267;51.156;17.044;2024-01-10T05:09:24;102089.27;;;-8.45;34.67
70690;BME280;58267;51.156;17.044;2024-01-10T05:11:50;102082.87;;;-8.49;34.84
70690;BME280;58267;51.156;17.044;2024-01-10T05:14:15;102087.72;;;-8.39;34.82
70690;BME280;58267;51.156;17.044;2024-01-10T05:16:41;102094.25;;;-8.46;34.60
70690;BME280;58267;51.156;17.044;2024-01-10T05:19:06;102096.46;;;-8.64;35.28
70690;BME280;58267;51.156;17.044;2024-01-10T05:21:32;102092.28;;;-8.47;35.02
70690;BME280;58267;51.156;17.044;2024-01-10T05:23:56;102093.15;;;-8.38;35.08
70690;BME280;58267;51.156;17.044;2024-01-10T05:26:22;102097.93;;;-8.42;35.05
70690;BME280;58267;51.156;17.044;2024-01-10T05:28:47;102097.32;;;-8.21;34.77
70690;BME280;58267;51.156;17.044;2024-01-10T05:31:12;102096.45;;;-8.23;34.90
70690;BME280;58267;51.156;17.044;2024-01-10T05:33:37;102099.99;;;-8.20;34.87
70690;BME280;58267;51.156;17.044;2024-01-10T05:36:03;102099.35;;;-8.59;34.92
70690;BME280;58267;51.156;17.044;2024-01-10T05:38:28;102096.50;;;-8.41;35.03
70690;BME280;58267;51.156;17.044;2024-01-10T05:40:54;102098.19;;;-8.53;35.00
70690;BME280;58267;51.156;17.044;2024-01-10T05:43:19;102094.27;;;-8.36;34.86
70690;BME280;58267;51.156;17.044;2024-01-10T05:45:44;102091.72;;;-8.24;34.67
70690;BME280;58267;51.156;17.044;2024-01-10T05:48:09;102094.56;;;-8.35;34.95
70690;BME280;58267;51.156;17.044;2024-01-10T05:50:35;102090.91;;;-8.48;34.94
70690;BME280;58267;51.156;17.044;2024-01-10T05:53:01;102085.15;;;-8.31;35.16
70690;BME280;58267;51.156;17.044;2024-01-10T05:55:26;102080.07;;;-8.48;35.20
70690;BME280;58267;51.156;17.044;2024-01-10T05:57:51;102082.12;;;-8.29;35.07
70690;BME280;58267;51.156;17.044;2024-01-10T06:00:18;102086.41;;;-8.12;34.96
70690;BME280;58267;51.156;17.044;2024-01-10T06:02:43;102088.82;;;-8.13;35.11
70690;BME280;58267;51.156;17.044;2024-01-10T06:05:09;102086.75;;;-8.16;35.23
70690;BME280;58267;51.156;17.044;2024-01-10T06:07:34;102089.23;;;-8.09;35.30
70690;BME280;58267;51.156;17.044;2024-01-10T06:09:59;102089.22;;;-8.12;35.10
70690;BME280;58267;51.156;17.044;2024-01-10T06:12:25;102094.06;;;-8.49;35.13
70690;BME280;58267;51.156;17.044;2024-01-10T06:14:50;102098.13;;;-8.04;34.93
70690;BME280;58267;51.156;17.044;2024-01-10T06:17:15;102093.51;;;-8.20;34.86
70690;BME280;58267;51.156;17.044;2024-01-10T06:19:41;102094.54;;;-8.34;34.74
70690;BME280;58267;51.156;17.044;2024-01-10T06:22:06;102095.74;;;-8.30;34.83
70690;BME280;58267;51.156;17.044;2024-01-10T06:24:31;102098.43;;;-8.50;34.98
70690;BME280;58267;51.156;17.044;2024-01-10T06:26:56;102096.29;;;-8.40;35.01
70690;BME280;58267;51.156;17.044;2024-01-10T06:29:21;102092.07;;;-8.45;34.80
70690;BME280;58267;51.156;17.044;2024-01-10T06:31:47;102093.39;;;-8.48;34.69
70690;BME280;58267;51.156;17.044;2024-01-10T06:34:12;102098.67;;;-8.45;34.66
70690;BME280;58267;51.156;17.044;2024-01-10T06:36:38;102096.03;;;-8.44;34.90
70690;BME280;58267;51.156;17.044;2024-01-10T06:39:03;102091.12;;;-8.43;35.01
70690;BME280;58267;51.156;17.044;2024-01-10T06:41:29;102092.59;;;-8.37;34.95
70690;BME280;58267;51.156;17.044;2024-01-10T06:43:55;102090.11;;;-8.44;35.13
70690;BME280;58267;51.156;17.044;2024-01-10T06:46:21;102086.33;;;-8.39;34.98
70690;BME280;58267;51.156;17.044;2024-01-10T06:48:45;102081.21;;;-8.35;35.09
70690;BME280;58267;51.156;17.044;2024-01-10T06:51:12;102083.12;;;-8.29;35.16
70690;BME280;58267;51.156;17.044;2024-01-10T06:53:36;102077.59;;;-8.31;35.15
70690;BME280;58267;51.156;17.044;2024-01-10T06:56:01;102074.77;;;-8.20;35.21
70690;BME280;58267;51.156;17.044;2024-01-10T06:58:27;102073.68;;;-8.33;35.43
70690;BME280;58267;51.156;17.044;2024-01-10T07:00:52;102074.56;;;-7.95;36.02
70690;BME280;58267;51.156;17.044;2024-01-10T07:03:18;102065.15;;;-8.02;36.99
70690;BME280;58267;51.156;17.044;2024-01-10T07:05:43;102062.86;;;-7.88;36.22
70690;BME280;58267;51.156;17.044;2024-01-10T07:08:09;102060.77;;;-8.02;35.56
70690;BME280;58267;51.156;17.044;2024-01-10T07:10:34;102061.68;;;-7.90;35.18
70690;BME280;58267;51.156;17.044;2024-01-10T07:13:00;102062.03;;;-8.07;35.13
70690;BME280;58267;51.156;17.044;2024-01-10T07:15:25;102064.56;;;-7.94;34.97
70690;BME280;58267;51.156;17.044;2024-01-10T07:17:51;102058.24;;;-8.14;34.95
70690;BME280;58267;51.156;17.044;2024-01-10T07:20:17;102053.32;;;-7.95;35.05
70690;BME280;58267;51.156;17.044;2024-01-10T07:22:42;102048.84;;;-7.84;34.93
70690;BME280;58267;51.156;17.044;2024-01-10T07:25:08;102048.90;;;-7.65;35.01
70690;BME280;58267;51.156;17.044;2024-01-10T07:27:33;102044.71;;;-7.70;35.16
70690;BME280;58267;51.156;17.044;2024-01-10T07:29:59;102038.85;;;-7.56;34.83
70690;BME280;58267;51.156;17.044;2024-01-10T07:32:24;102034.82;;;-7.72;34.63
70690;BME280;58267;51.156;17.044;2024-01-10T07:34:50;102033.10;;;-7.49;34.73
70690;BME280;58267;51.156;17.044;2024-01-10T07:37:15;102037.11;;;-7.37;34.57
70690;BME280;58267;51.156;17.044;2024-01-10T07:39:41;102035.27;;;-7.48;34.69
70690;BME280;58267;51.156;17.044;2024-01-10T07:42:06;102032.79;;;-7.69;34.74
70690;BME280;58267;51.156;17.044;2024-01-10T07:44:31;102034.92;;;-7.76;34.69
70690;BME280;58267;51.156;17.044;2024-01-10T07:46:56;102037.00;;;-7.74;34.81
70690;BME280;58267;51.156;17.044;2024-01-10T07:49:22;102042.21;;;-7.50;34.77
70690;BME280;58267;51.156;17.044;2024-01-10T07:51:47;102045.83;;;-7.73;34.79
70690;BME280;58267;51.156;17.044;2024-01-10T07:54:12;102050.20;;;-7.31;34.81
70690;BME280;58267;51.156;17.044;2024-01-10T07:56:38;102050.34;;;-7.36;34.70
70690;BME280;58267;51.156;17.044;2024-01-10T07:59:03;102057.84;;;-7.92;34.81
70690;BME280;58267;51.156;17.044;2024-01-10T08:01:28;102052.94;;;-7.46;34.59
70690;BME280;58267;51.156;17.044;2024-01-10T08:03:54;102051.92;;;-7.83;34.62
70690;BME280;58267;51.156;17.044;2024-01-10T08:06:19;102053.80;;;-7.65;34.70
70690;BME280;58267;51.156;17.044;2024-01-10T08:08:45;102061.05;;;-7.40;34.72
70690;BME280;58267;51.156;17.044;2024-01-10T08:11:11;102066.49;;;-7.36;34.65
70690;BME280;58267;51.156;17.044;2024-01-10T08:13:36;102065.67;;;-7.25;34.59
70690;BME280;58267;51.156;17.044;2024-01-10T08:16:01;102063.58;;;-7.23;34.49
70690;BME280;58267;51.156;17.044;2024-01-10T08:18:26;102061.56;;;-7.11;34.47
70690;BME280;58267;51.156;17.044;2024-01-10T08:20:52;102062.12;;;-7.21;34.65
70690;BME280;58267;51.156;17.044;2024-01-10T08:23:17;102063.99;;;-7.08;34.43
70690;BME280;58267;51.156;17.044;2024-01-10T08:25:42;102065.67;;;-6.93;34.30
70690;BME280;58267;51.156;17.044;2024-01-10T08:28:07;102071.75;;;-6.88;34.30
70690;BME280;58267;51.156;17.044;2024-01-10T08:30:33;102071.11;;;-7.13;34.68
70690;BME280;58267;51.156;17.044;2024-01-10T08:32:59;102074.74;;;-6.91;34.61
70690;BME280;58267;51.156;17.044;2024-01-10T08:35:25;102075.62;;;-6.84;34.55
70690;BME280;58267;51.156;17.044;2024-01-10T08:37:50;102073.02;;;-6.75;34.44
70690;BME280;58267;51.156;17.044;2024-01-10T08:40:17;102069.77;;;-6.42;33.92
70690;BME280;58267;51.156;17.044;2024-01-10T08:42:42;102069.67;;;-7.15;34.19
70690;BME280;58267;51.156;17.044;2024-01-10T08:45:08;102071.21;;;-6.80;34.25
70690;BME280;58267;51.156;17.044;2024-01-10T08:47:33;102068.21;;;-6.89;34.08
70690;BME280;58267;51.156;17.044;2024-01-10T08:49:59;102065.06;;;-6.52;34.04
70690;BME280;58267;51.156;17.044;2024-01-10T08:52:24;102059.26;;;-6.41;33.95
70690;BME280;58267;51.156;17.044;2024-01-10T08:54:50;102058.36;;;-6.53;33.78
70690;BME280;58267;51.156;17.044;2024-01-10T08:57:16;102053.71;;;-6.40;33.78
70690;BME280;58267;51.156;17.044;2024-01-10T08:59:42;102050.66;;;-6.25;33.61
70690;BME280;58267;51.156;17.044;2024-01-10T09:02:07;102048.22;;;-6.16;33.56
70690;BME280;58267;51.156;17.044;2024-01-10T09:04:32;102050.10;;;-6.03;33.49
70690;BME280;58267;51.156;17.044;2024-01-10T09:06:57;102049.56;;;-6.21;33.39
70690;BME280;58267;51.156;17.044;2024-01-10T09:09:23;102051.48;;;-6.19;33.53
70690;BME280;58267;51.156;17.044;2024-01-10T09:11:49;102050.01;;;-6.13;33.54
70690;BME280;58267;51.156;17.044;2024-01-10T09:14:14;102048.34;;;-5.76;33.42
70690;BME280;58267;51.156;17.044;2024-01-10T09:16:39;102049.62;;;-5.66;33.60
70690;BME280;58267;51.156;17.044;2024-01-10T09:19:05;102048.71;;;-5.80;33.74
70690;BME280;58267;51.156;17.044;2024-01-10T09:21:30;102046.36;;;-5.55;33.65
70690;BME280;58267;51.156;17.044;2024-01-10T09:23:56;102042.41;;;-5.91;33.67
70690;BME280;58267;51.156;17.044;2024-01-10T09:26:24;102038.86;;;-5.84;33.89
70690;BME280;58267;51.156;17.044;2024-01-10T09:28:48;102034.56;;;-5.84;33.88
70690;BME280;58267;51.156;17.044;2024-01-10T09:31:13;102034.80;;;-5.69;33.72
70690;BME280;58267;51.156;17.044;2024-01-10T09:33:39;102037.08;;;-5.61;33.69
70690;BME280;58267;51.156;17.044;2024-01-10T09:36:05;102037.28;;;-5.54;33.77
70690;BME280;58267;51.156;17.044;2024-01-10T09:38:30;102040.54;;;-5.77;33.96
70690;BME280;58267;51.156;17.044;2024-01-10T09:40:59;102041.88;;;-5.64;33.98
70690;BME280;58267;51.156;17.044;2024-01-10T09:43:25;102037.64;;;-5.64;33.79
70690;BME280;58267;51.156;17.044;2024-01-10T09:45:51;102036.08;;;-5.46;33.76
70690;BME280;58267;51.156;17.044;2024-01-10T09:48:15;102036.77;;;-5.27;33.59
70690;BME280;58267;51.156;17.044;2024-01-10T09:50:41;102034.34;;;-5.55;34.30
70690;BME280;58267;51.156;17.044;2024-01-10T09:53:16;102032.89;;;-5.83;34.82
70690;BME280;58267;51.156;17.044;2024-01-10T09:55:37;102030.63;;;-5.11;34.23
70690;BME280;58267;51.156;17.044;2024-01-10T09:58:02;102025.78;;;-5.02;34.36
70690;BME280;58267;51.156;17.044;2024-01-10T10:00:27;102016.01;;;-5.14;34.78
70690;BME280;58267;51.156;17.044;2024-01-10T10:02:52;102010.73;;;-5.64;35.52
70690;BME280;58267;51.156;17.044;2024-01-10T10:05:17;102010.51;;;-5.18;34.82
70690;BME280;58267;51.156;17.044;2024-01-10T10:07:44;102008.56;;;-5.11;34.56
70690;BME280;58267;51.156;17.044;2024-01-10T10:10:09;102006.99;;;-5.72;35.07
70690;BME280;58267;51.156;17.044;2024-01-10T10:12:42;102004.76;;;-5.52;35.18
70690;BME280;58267;51.156;17.044;2024-01-10T10:15:08;102011.24;;;-5.03;34.91
70690;BME280;58267;51.156;17.044;2024-01-10T10:17:24;102012.52;;;-4.86;34.70
70690;BME280;58267;51.156;17.044;2024-01-10T10:19:50;102013.83;;;-4.82;35.25
70690;BME280;58267;51.156;17.044;2024-01-10T10:22:15;102009.31;;;-5.08;35.40
70690;BME280;58267;51.156;17.044;2024-01-10T10:24:41;102008.12;;;-5.09;34.96
70690;BME280;58267;51.156;17.044;2024-01-10T10:27:08;102005.24;;;-5.39;35.37
70690;BME280;58267;51.156;17.044;2024-01-10T10:29:32;102007.78;;;-4.99;35.01
70690;BME280;58267;51.156;17.044;2024-01-10T10:31:58;102002.62;;;-4.70;34.84
70690;BME280;58267;51.156;17.044;2024-01-10T10:34:23;102002.06;;;-4.35;34.63
70690;BME280;58267;51.156;17.044;2024-01-10T10:36:49;102002.51;;;-4.35;34.44
70690;BME280;58267;51.156;17.044;2024-01-10T10:39:16;101996.20;;;-4.23;33.84
70690;BME280;58267;51.156;17.044;2024-01-10T10:41:40;102002.02;;;-3.99;33.77
70690;BME280;58267;51.156;17.044;2024-01-10T10:44:07;102002.01;;;-3.96;33.69
70690;BME280;58267;51.156;17.044;2024-01-10T10:46:31;102005.91;;;-3.66;33.27
70690;BME280;58267;51.156;17.044;2024-01-10T10:48:59;102009.98;;;-3.82;33.07
70690;BME280;58267;51.156;17.044;2024-01-10T10:51:28;102007.31;;;-3.31;32.62
70690;BME280;58267;51.156;17.044;2024-01-10T10:53:48;102008.62;;;-3.35;32.50
70690;BME280;58267;51.156;17.044;2024-01-10T10:56:13;102007.06;;;-3.02;32.50
70690;BME280;58267;51.156;17.044;2024-01-10T10:58:40;102003.72;;;-2.96;32.33
70690;BME280;58267;51.156;17.044;2024-01-10T11:01:05;101999.71;;;-2.65;32.22
70690;BME280;58267;51.156;17.044;2024-01-10T11:03:30;101996.25;;;-2.69;32.19
70690;BME280;58267;51.156;17.044;2024-01-10T11:05:54;101996.63;;;-2.59;32.10
70690;BME280;58267;51.156;17.044;2024-01-10T11:08:20;101994.62;;;-2.84;32.11
70690;BME280;58267;51.156;17.044;2024-01-10T11:10:46;101992.87;;;-2.64;31.84
70690;BME280;58267;51.156;17.044;2024-01-10T11:13:24;101991.26;;;-2.25;31.64
70690;BME280;58267;51.156;17.044;2024-01-10T11:18:11;101987.86;;;-2.23;31.43
70690;BME280;58267;51.156;17.044;2024-01-10T11:20:39;101987.36;;;-2.09;31.33
70690;BME280;58267;51.156;17.044;2024-01-10T11:23:05;101983.98;;;-1.90;31.21
70690;BME280;58267;51.156;17.044;2024-01-10T11:25:18;101979.96;;;-2.04;31.03
70690;BME280;58267;51.156;17.044;2024-01-10T11:27:43;101977.40;;;-2.26;30.98
70690;BME280;58267;51.156;17.044;2024-01-10T11:30:11;101974.20;;;-1.69;31.14
70690;BME280;58267;51.156;17.044;2024-01-10T11:32:35;101969.85;;;-1.80;31.00
70690;BME280;58267;51.156;17.044;2024-01-10T11:35:03;101968.65;;;-1.94;30.96
70690;BME280;58267;51.156;17.044;2024-01-10T11:37:31;101966.71;;;-1.74;30.87
70690;BME280;58267;51.156;17.044;2024-01-10T11:39:51;101963.02;;;-1.50;30.77
70690;BME280;58267;51.156;17.044;2024-01-10T11:42:21;101964.54;;;-1.35;30.65
70690;BME280;58267;51.156;17.044;2024-01-10T11:44:47;101963.91;;;-1.14;30.51
70690;BME280;58267;51.156;17.044;2024-01-10T11:47:07;101961.05;;;-1.34;30.47
70690;BME280;58267;51.156;17.044;2024-01-10T11:49:34;101959.97;;;-1.08;30.57
70690;BME280;58267;51.156;17.044;2024-01-10T11:51:59;101957.63;;;-0.94;30.35
70690;BME280;58267;51.156;17.044;2024-01-10T11:56:50;101953.39;;;-0.87;30.56
70690;BME280;58267;51.156;17.044;2024-01-10T11:59:16;101946.82;;;-0.94;30.09
70690;BME280;58267;51.156;17.044;2024-01-10T12:01:42;101943.66;;;-0.55;30.20
70690;BME280;58267;51.156;17.044;2024-01-10T12:04:06;101938.15;;;-0.53;29.82
70690;BME280;58267;51.156;17.044;2024-01-10T12:06:33;101932.85;;;-0.80;29.91
70690;BME280;58267;51.156;17.044;2024-01-10T12:08:57;101935.53;;;-0.32;29.67
70690;BME280;58267;51.156;17.044;2024-01-10T12:11:23;101934.18;;;-0.60;29.99
70690;BME280;58267;51.156;17.044;2024-01-10T12:13:48;101921.69;;;-0.01;29.40
70690;BME280;58267;51.156;17.044;2024-01-10T12:16:14;101915.26;;;0.08;29.21
70690;BME280;58267;51.156;17.044;2024-01-10T12:18:40;101915.38;;;0.45;28.86
70690;BME280;58267;51.156;17.044;2024-01-10T12:21:05;101917.74;;;0.69;28.37
70690;BME280;58267;51.156;17.044;2024-01-10T12:23:30;101921.44;;;0.55;28.32
70690;BME280;58267;51.156;17.044;2024-01-10T12:25:55;101918.80;;;0.88;28.23
70690;BME280;58267;51.156;17.044;2024-01-10T12:28:21;101914.82;;;0.74;27.93
70690;BME280;58267;51.156;17.044;2024-01-10T12:30:47;101916.44;;;0.65;27.68
70690;BME280;58267;51.156;17.044;2024-01-10T12:33:12;101908.82;;;0.85;27.45
70690;BME280;58267;51.156;17.044;2024-01-10T12:35:37;101901.24;;;1.05;27.61